createdAt,value
2023-05-21T00:00:27.052Z,99774.53
2023-05-21T00:04:40.919Z,99763.97
2023-05-21T00:08:54.170Z,99758.94
2023-05-21T00:13:06.591Z,99746.63
2023-05-21T00:17:18.977Z,99740.47
2023-05-21T00:21:31.964Z,99735.47
2023-05-21T00:25:45.510Z,99745.41
2023-05-21T00:29:58.030Z,99736.91
2023-05-21T00:34:10.429Z,99725.94
2023-05-21T00:38:23.611Z,99720.16
2023-05-21T00:42:40.260Z,99718.53
2023-05-21T00:46:56.446Z,99709.22
2023-05-21T00:51:09.282Z,99710.69
2023-05-21T00:55:22.204Z,99698.66
2023-05-21T00:59:34.966Z,99692.66
2023-05-21T01:03:49.091Z,99690.50
2023-05-21T01:08:02.283Z,99693.63
2023-05-21T01:12:15.681Z,99701.38
2023-05-21T01:16:28.180Z,99700.50
2023-05-21T01:20:42.813Z,99691.00
2023-05-21T01:24:55.937Z,99701.13
2023-05-21T01:29:13.423Z,99693.06
2023-05-21T01:33:48.062Z,99697.69
2023-05-21T01:38:20.648Z,99689.22
2023-05-21T01:42:36.484Z,99681.88
2023-05-21T01:46:50.081Z,99680.16
2023-05-21T01:51:06.956Z,99673.63
2023-05-21T01:55:26.240Z,99669.72
2023-05-21T01:59:39.178Z,99662.31
2023-05-21T02:03:51.775Z,99650.47
2023-05-21T02:08:05.771Z,99639.34
2023-05-21T02:12:18.253Z,99634.59
2023-05-21T02:16:30.842Z,99632.13
2023-05-21T02:20:43.954Z,99642.94
2023-05-21T02:24:56.336Z,99646.28
2023-05-21T02:29:09.191Z,99643.75
2023-05-21T02:33:22.212Z,99647.75
2023-05-21T02:37:34.724Z,99653.78
2023-05-21T02:41:47.673Z,99648.03
2023-05-21T02:46:00.716Z,99657.09
2023-05-21T02:50:14.637Z,99641.53
2023-05-21T02:54:35.738Z,99649.00
2023-05-21T02:58:48.222Z,99651.88
2023-05-21T03:03:03.631Z,99650.28
2023-05-21T03:07:19.320Z,99634.22
2023-05-21T03:11:32.292Z,99627.78
2023-05-21T03:15:44.806Z,99639.13
2023-05-21T03:19:57.195Z,99635.34
2023-05-21T03:24:10.009Z,99640.56
2023-05-21T03:28:22.485Z,99645.59
2023-05-21T03:32:38.232Z,99645.97
2023-05-21T03:36:51.611Z,99652.44
2023-05-21T03:41:04.693Z,99659.00
2023-05-21T03:45:17.161Z,99647.78
2023-05-21T03:49:51.743Z,99655.50
2023-05-21T03:54:05.481Z,99670.13
2023-05-21T03:58:18.674Z,99671.38
2023-05-21T04:02:32.187Z,99671.38
2023-05-21T04:06:44.640Z,99678.81
2023-05-21T04:10:58.268Z,99682.28
2023-05-21T04:15:11.066Z,99676.72
2023-05-21T04:19:23.516Z,99666.66
2023-05-21T04:23:38.194Z,99667.00
2023-05-21T04:27:57.304Z,99660.88
2023-05-21T04:32:11.270Z,99655.09
2023-05-21T04:36:24.695Z,99650.34
2023-05-21T04:40:37.087Z,99663.41
2023-05-21T04:44:49.782Z,99670.47
2023-05-21T04:49:06.138Z,99664.38
2023-05-21T04:53:18.569Z,99651.53
2023-05-21T04:57:31.149Z,99657.31
2023-05-21T05:01:44.832Z,99656.75
2023-05-21T05:05:57.235Z,99649.28
2023-05-21T05:10:11.648Z,99648.41
2023-05-21T05:14:24.164Z,99651.09
2023-05-21T05:18:37.080Z,99648.13
2023-05-21T05:22:49.753Z,99650.53
2023-05-21T05:27:03.027Z,99656.78
2023-05-21T05:31:16.193Z,99653.00
2023-05-21T05:35:29.335Z,99648.19
2023-05-21T05:39:42.041Z,99653.06
2023-05-21T05:43:54.527Z,99647.16
2023-05-21T05:48:08.041Z,99648.44
2023-05-21T05:52:20.795Z,99660.88
2023-05-21T05:56:33.500Z,99645.03
2023-05-21T06:00:46.400Z,99647.78
2023-05-21T06:04:58.924Z,99652.22
2023-05-21T06:09:11.403Z,99653.50
2023-05-21T06:13:23.818Z,99654.16
2023-05-21T06:17:36.572Z,99650.56
2023-05-21T06:21:49.365Z,99657.31
2023-05-21T06:26:02.927Z,99658.78
2023-05-21T06:30:15.609Z,99657.06
2023-05-21T06:34:29.072Z,99653.97
2023-05-21T06:38:42.946Z,99660.47
2023-05-21T06:42:56.702Z,99648.09
2023-05-21T06:47:27.725Z,99652.63
2023-05-21T06:51:40.410Z,99648.53
2023-05-21T06:55:54.060Z,99644.84
2023-05-21T07:00:26.832Z,99641.47
2023-05-21T07:04:39.456Z,99633.59
2023-05-21T07:08:52.052Z,99627.66
2023-05-21T07:13:04.786Z,99637.91
2023-05-21T07:17:17.370Z,99624.78
2023-05-21T07:21:29.927Z,99624.19
2023-05-21T07:25:42.672Z,99619.50
2023-05-21T07:29:55.237Z,99616.16
2023-05-21T07:34:08.336Z,99620.59
2023-05-21T07:38:20.886Z,99624.03
2023-05-21T07:42:33.388Z,99616.91
2023-05-21T07:46:46.827Z,99618.56
2023-05-21T07:51:00.361Z,99630.41
2023-05-21T07:55:13.738Z,99622.59
2023-05-21T07:59:26.865Z,99623.88
2023-05-21T08:03:39.728Z,99628.06
2023-05-21T08:07:53.025Z,99641.16
2023-05-21T08:12:06.861Z,99634.84
2023-05-21T08:16:21.535Z,99649.41
2023-05-21T08:20:34.598Z,99643.44
2023-05-21T08:24:48.591Z,99651.34
2023-05-21T08:29:01.159Z,99649.28
2023-05-21T08:33:14.390Z,99657.53
2023-05-21T08:37:26.909Z,99651.84
2023-05-21T08:41:58.013Z,99652.13
2023-05-21T08:46:11.338Z,99657.13
2023-05-21T08:50:28.308Z,99668.75
2023-05-21T08:54:46.067Z,99670.53
2023-05-21T08:59:02.580Z,99668.84
2023-05-21T09:03:22.808Z,99674.72
2023-05-21T09:07:52.470Z,99686.06
2023-05-21T09:12:38.405Z,99687.31
2023-05-21T09:16:51.172Z,99684.22
2023-05-21T09:21:27.329Z,99682.69
2023-05-21T09:25:54.681Z,99683.69
2023-05-21T09:30:15.333Z,99695.69
2023-05-21T09:34:28.735Z,99702.75
2023-05-21T09:38:42.877Z,99710.38
2023-05-21T09:42:55.945Z,99709.25
2023-05-21T09:47:09.979Z,99708.34
2023-05-21T09:51:22.553Z,99716.16
2023-05-21T09:55:39.697Z,99721.97
2023-05-21T09:59:52.268Z,99729.53
2023-05-21T10:04:08.939Z,99734.09
2023-05-21T10:08:25.979Z,99726.03
2023-05-21T10:12:40.131Z,99721.63
2023-05-21T10:16:54.836Z,99745.00
2023-05-21T10:21:09.092Z,99736.34
2023-05-21T10:25:22.630Z,99737.63
2023-05-21T10:29:37.441Z,99751.31
2023-05-21T10:33:51.189Z,99750.56
2023-05-21T10:38:05.338Z,99757.75
2023-05-21T10:42:33.069Z,99741.94
2023-05-21T10:47:09.603Z,99745.13
2023-05-21T10:52:06.809Z,99737.13
2023-05-21T10:56:26.064Z,99742.91
2023-05-21T11:00:38.937Z,99732.84
2023-05-21T11:04:59.408Z,99727.13
2023-05-21T11:09:14.045Z,99732.34
2023-05-21T11:13:27.576Z,99723.34
2023-05-21T11:17:42.309Z,99729.13
2023-05-21T11:21:55.951Z,99736.00
2023-05-21T11:26:08.421Z,99737.13
2023-05-21T11:30:20.937Z,99737.00
2023-05-21T11:34:41.183Z,99734.03
2023-05-21T11:39:24.234Z,99737.50
2023-05-21T11:43:41.250Z,99740.91
2023-05-21T11:47:53.945Z,99740.13
2023-05-21T11:52:08.116Z,99736.81
2023-05-21T11:56:20.917Z,99739.06
2023-05-21T12:00:40.451Z,99743.06
2023-05-21T12:04:53.038Z,99736.44
2023-05-21T12:09:05.537Z,99740.38
2023-05-21T12:13:17.927Z,99747.09
2023-05-21T12:17:32.092Z,99749.59
2023-05-21T12:21:44.684Z,99746.50
2023-05-21T12:25:57.744Z,99732.94
2023-05-21T12:30:10.434Z,99734.66
2023-05-21T12:34:47.663Z,99735.72
2023-05-21T12:39:00.325Z,99724.13
2023-05-21T12:43:12.934Z,99724.34
2023-05-21T12:47:27.209Z,99723.41
2023-05-21T12:51:40.547Z,99726.75
2023-05-21T12:55:56.676Z,99730.44
2023-05-21T13:00:10.622Z,99725.44
2023-05-21T13:04:24.563Z,99728.91
2023-05-21T13:08:39.140Z,99728.00
2023-05-21T13:12:52.875Z,99725.09
2023-05-21T13:17:06.360Z,99721.09
2023-05-21T13:21:19.115Z,99725.84
2023-05-21T13:25:35.013Z,99721.97
2023-05-21T13:29:47.422Z,99722.09
2023-05-21T13:34:02.016Z,99731.06
2023-05-21T13:38:14.533Z,99729.03
2023-05-21T13:42:26.881Z,99737.88
2023-05-21T13:46:39.848Z,99728.84
2023-05-21T13:50:52.852Z,99730.03
2023-05-21T13:55:05.955Z,99720.44
2023-05-21T13:59:18.483Z,99719.38
2023-05-21T14:03:31.463Z,99725.22
2023-05-21T14:07:43.997Z,99729.44
2023-05-21T14:11:57.483Z,99725.50
2023-05-21T14:16:09.920Z,99730.06
2023-05-21T14:20:22.294Z,99726.66
2023-05-21T14:24:34.719Z,99732.34
2023-05-21T14:28:47.202Z,99730.06
2023-05-21T14:32:59.636Z,99723.19
2023-05-21T14:37:13.345Z,99720.00
2023-05-21T14:41:28.087Z,99712.09
2023-05-21T14:45:41.326Z,99714.91
2023-05-21T14:49:53.826Z,99718.06
2023-05-21T14:54:06.270Z,99721.22
2023-05-21T14:58:18.730Z,99716.00
2023-05-21T15:02:31.415Z,99721.25
2023-05-21T15:06:44.256Z,99719.59
2023-05-21T15:10:57.600Z,99719.81
2023-05-21T15:15:10.578Z,99716.91
2023-05-21T15:19:23.080Z,99718.09
2023-05-21T15:23:36.822Z,99713.53
2023-05-21T15:27:50.568Z,99709.69
2023-05-21T15:32:05.650Z,99710.84
2023-05-21T15:36:18.076Z,99717.03
2023-05-21T15:40:30.560Z,99715.38
2023-05-21T15:44:43.220Z,99726.16
2023-05-21T15:48:55.620Z,99722.72
2023-05-21T15:53:08.041Z,99719.13
2023-05-21T15:57:21.189Z,99726.66
2023-05-21T16:01:34.933Z,99733.72
2023-05-21T16:05:47.744Z,99732.59
2023-05-21T16:10:00.156Z,99742.25
2023-05-21T16:14:13.264Z,99745.66
2023-05-21T16:18:25.714Z,99744.94
2023-05-21T16:22:38.271Z,99744.09
2023-05-21T16:26:50.754Z,99745.19
2023-05-21T16:31:03.703Z,99753.03
2023-05-21T16:35:18.305Z,99753.75
2023-05-21T16:39:30.650Z,99745.94
2023-05-21T16:43:43.212Z,99748.22
2023-05-21T16:47:58.084Z,99750.94
2023-05-21T16:52:10.752Z,99752.50
2023-05-21T16:56:23.420Z,99761.22
2023-05-21T17:00:36.328Z,99755.66
2023-05-21T17:04:48.744Z,99749.13
2023-05-21T17:09:03.496Z,99761.47
2023-05-21T17:13:22.223Z,99765.69
2023-05-21T17:17:36.495Z,99771.13
2023-05-21T17:21:49.066Z,99758.75
2023-05-21T17:26:02.356Z,99760.72
2023-05-21T17:30:15.679Z,99751.00
2023-05-21T17:34:30.655Z,99747.13
2023-05-21T17:38:44.190Z,99748.41
2023-05-21T17:42:56.745Z,99742.88
2023-05-21T17:47:09.707Z,99740.50
2023-05-21T17:51:22.416Z,99749.34
2023-05-21T17:55:34.909Z,99758.03
2023-05-21T17:59:48.042Z,99755.59
2023-05-21T18:04:00.487Z,99746.66
2023-05-21T18:08:12.948Z,99757.16
2023-05-21T18:12:25.452Z,99756.44
2023-05-21T18:16:38.004Z,99756.81
2023-05-21T18:20:52.020Z,99746.59
2023-05-21T18:25:08.601Z,99752.06
2023-05-21T18:29:21.390Z,99764.72
2023-05-21T18:33:33.949Z,99766.03
2023-05-21T18:37:47.063Z,99768.97
2023-05-21T18:42:12.273Z,99771.75
2023-05-21T18:46:28.293Z,99783.69
2023-05-21T18:50:40.814Z,99766.97
2023-05-21T18:54:54.985Z,99776.16
2023-05-21T18:59:08.102Z,99767.41
2023-05-21T19:03:20.399Z,99771.16
2023-05-21T19:07:32.823Z,99781.00
2023-05-21T19:11:45.273Z,99783.97
2023-05-21T19:15:58.853Z,99787.19
2023-05-21T19:20:11.569Z,99792.44
2023-05-21T19:24:24.011Z,99787.75
2023-05-21T19:28:36.458Z,99787.63
2023-05-21T19:32:49.200Z,99792.28
2023-05-21T19:37:01.930Z,99788.16
2023-05-21T19:41:15.897Z,99787.97
2023-05-21T19:45:28.283Z,99801.28
2023-05-21T19:49:43.163Z,99798.34
2023-05-21T19:53:55.772Z,99814.16
2023-05-21T19:58:09.370Z,99817.38
2023-05-21T20:02:23.475Z,99825.47
2023-05-21T20:06:36.406Z,99828.28
2023-05-21T20:10:51.390Z,99829.88
2023-05-21T20:15:06.916Z,99814.84
2023-05-21T20:19:20.866Z,99818.53
2023-05-21T20:23:33.283Z,99819.38
2023-05-21T20:27:45.777Z,99813.94
2023-05-21T20:31:58.741Z,99812.66
2023-05-21T20:36:11.359Z,99818.25
2023-05-21T20:40:23.943Z,99819.47
2023-05-21T20:44:36.738Z,99821.94
2023-05-21T20:48:49.824Z,99825.69
2023-05-21T20:53:03.312Z,99815.91
2023-05-21T20:57:17.235Z,99825.84
2023-05-21T21:01:30.662Z,99816.97
2023-05-21T21:05:43.178Z,99818.78
2023-05-21T21:09:56.009Z,99801.56
2023-05-21T21:14:08.967Z,99807.75
2023-05-21T21:18:21.358Z,99814.09
2023-05-21T21:22:34.389Z,99807.53
2023-05-21T21:26:47.067Z,99803.09
2023-05-21T21:30:59.607Z,99810.00
2023-05-21T21:35:11.901Z,99803.13
2023-05-21T21:39:26.400Z,99801.91
2023-05-21T21:43:39.021Z,99799.84
2023-05-21T21:47:51.404Z,99790.56
2023-05-21T21:52:03.984Z,99796.19
2023-05-21T21:56:16.752Z,99799.81
2023-05-21T22:00:29.992Z,99793.84
2023-05-21T22:04:44.078Z,99802.03
2023-05-21T22:08:56.574Z,99801.78
2023-05-21T22:13:09.379Z,99800.91
2023-05-21T22:17:23.737Z,99798.25
2023-05-21T22:21:36.318Z,99802.53
2023-05-21T22:25:49.029Z,99803.72
2023-05-21T22:30:03.952Z,99800.41
2023-05-21T22:34:16.626Z,99796.28
2023-05-21T22:38:29.001Z,99790.28
2023-05-21T22:42:41.974Z,99790.94
2023-05-21T22:47:01.054Z,99792.03
2023-05-21T22:51:14.419Z,99802.38
2023-05-21T22:55:26.918Z,99793.38
2023-05-21T22:59:39.331Z,99793.69
2023-05-21T23:03:51.930Z,99789.97
2023-05-21T23:08:04.632Z,99791.19
2023-05-21T23:12:17.236Z,99787.34
2023-05-21T23:16:31.058Z,99780.94
2023-05-21T23:20:44.071Z,99778.38
2023-05-21T23:24:56.479Z,99776.81
2023-05-21T23:29:08.961Z,99777.56
2023-05-21T23:33:21.881Z,99780.59
2023-05-21T23:37:34.308Z,99772.53
2023-05-21T23:41:47.026Z,99776.66
2023-05-21T23:45:59.513Z,99772.13
2023-05-21T23:50:12.047Z,99762.34
2023-05-21T23:54:24.384Z,99769.50
2023-05-21T23:58:36.719Z,99763.13
